Aviation Digital Data Service (ADDS)

Output produced by METARs form (1502 UTC 23 July 2016)
found at http://www.aviationweather.gov/adds/metars/
 
METAR text: EPKK 231430Z 05004KT 360V110 9999 FEW055 27/13 Q1017
Conditions at: EPKK (KRAKOW/BALICE , PL) observed 1430 UTC 23 July 2016
Temperature: 27.0°C (81°F)
Dewpoint: 13.0°C (55°F) [RH = 42%]
Pressure (altimeter): 30.03 inches Hg (1017.0 mb)
Winds: from the NE (50 degrees) at 5 MPH (4 knots; 2.1 m/s)
Visibility: 6 or more miles (10+ km)
Ceiling: at least 12,000 feet AGL
Clouds: few clouds at 5500 feet AGL
Weather: no significant weather observed at this time

Forecast for: EPKK (KRAKOW/BALICE , PL)
Text: TAF EPKK 231130Z 2312/2412 06004KT CAVOK
Forecast period: 1200 UTC 23 July 2016 to 1200 UTC 24 July 2016
Forecast type: FROM: standard forecast or significant change
Winds: from the ENE (60 degrees) at 5 MPH (4 knots; 2.1 m/s)
Visibility: 6 or more miles (10+ km)
Clouds: not forecast
Weather: NSW  (no significant weather)